Time;durP1;ratioP1;P1;durP2;ratioP2;P2;SDS_P1;SDS_P2;PMS_P1;PMS_P2;Temp;Humidity;BMP_temperature;BMP_pressure;BME280_temperature;BME280_humidity;BME280_pressure;Samples;Min_cycle;Max_cycle;Signal;HPM_P1;HPM_P2
2021/05/23 00:00:33;;;;;;;;;;;27.60;93.20;;;;;;5066139;28;20223;-53
2021/05/23 00:03:01;;;;;;;;;;;27.60;93.20;;;;;;5066755;28;19948;-55
2021/05/23 00:05:29;;;;;;;;;;;27.60;93.20;;;;;;5066026;28;20185;-52
2021/05/23 00:08:00;;;;;;;;;;;27.60;93.30;;;;;;5066139;28;20200;-52
2021/05/23 00:10:27;;;;;;;;;;;27.60;93.30;;;;;;5065508;28;19939;-52
2021/05/23 00:12:54;;;;;;;;;;;27.60;93.50;;;;;;5047966;28;20102;-50
2021/05/23 00:15:23;;;;;;;;;;;27.50;93.60;;;;;;5047820;28;19911;-52
2021/05/23 00:17:49;;;;;;;;;;;27.50;93.80;;;;;;5065573;28;19912;-51
2021/05/23 00:20:16;;;;;;;;;;;27.50;93.80;;;;;;5065487;28;19905;-55
2021/05/23 00:22:42;;;;;;;;;;;27.50;93.80;;;;;;5065811;28;19913;-52
2021/05/23 00:25:09;;;;;;;;;;;27.50;94.00;;;;;;5065380;28;19905;-57
2021/05/23 00:27:35;;;;;;;;;;;27.40;93.90;;;;;;5065492;28;20231;-53
2021/05/23 00:30:01;;;;;;;;;;;27.40;94.00;;;;;;5065477;28;19913;-53
2021/05/23 00:32:30;;;;;;;;;;;27.40;94.10;;;;;;5065502;28;19928;-52
2021/05/23 00:34:56;;;;;;;;;;;27.40;94.20;;;;;;5065463;28;19905;-50
2021/05/23 00:37:26;;;;;;;;;;;27.40;94.30;;;;;;5065611;28;19912;-51
2021/05/23 00:39:53;;;;;;;;;;;27.40;94.20;;;;;;5064671;28;19980;-52
2021/05/23 00:42:19;;;;;;;;;;;27.40;94.00;;;;;;5064737;28;19912;-51
2021/05/23 00:44:46;;;;;;;;;;;27.40;93.90;;;;;;5064978;28;19914;-53
2021/05/23 00:47:12;;;;;;;;;;;27.40;93.90;;;;;;5065289;28;20001;-52
2021/05/23 00:49:38;;;;;;;;;;;27.30;93.90;;;;;;5065253;28;19912;-55
2021/05/23 00:52:08;;;;;;;;;;;27.30;93.80;;;;;;5069414;28;19959;-49
2021/05/23 00:54:34;;;;;;;;;;;27.40;93.70;;;;;;5068747;28;19947;-55
2021/05/23 00:57:01;;;;;;;;;;;27.40;93.40;;;;;;5064122;28;20125;-51
2021/05/23 00:59:27;;;;;;;;;;;27.40;93.30;;;;;;5063624;28;19980;-55
2021/05/23 01:01:56;;;;;;;;;;;27.40;93.10;;;;;;5064554;28;20136;-52
2021/05/23 01:04:23;;;;;;;;;;;27.40;93.10;;;;;;5064533;28;20124;-49
2021/05/23 01:06:49;;;;;;;;;;;27.40;93.00;;;;;;5064911;28;19963;-52
2021/05/23 01:09:16;;;;;;;;;;;27.40;93.00;;;;;;5064523;28;19951;-52
2021/05/23 01:11:42;;;;;;;;;;;27.40;93.00;;;;;;5064965;28;19917;-51
2021/05/23 01:14:16;;;;;;;;;;;27.40;93.00;;;;;;5064619;28;19905;-51
2021/05/23 01:16:43;;;;;;;;;;;27.40;93.00;;;;;;5064827;28;19947;-53
2021/05/23 01:19:13;;;;;;;;;;;27.40;93.00;;;;;;5064459;28;20217;-52
2021/05/23 01:21:41;;;;;;;;;;;27.40;93.00;;;;;;5064871;28;19967;-52
2021/05/23 01:24:10;;;;;;;;;;;27.40;92.90;;;;;;5064321;28;19919;-53
2021/05/23 01:26:37;;;;;;;;;;;27.40;93.00;;;;;;5064353;28;19951;-52
2021/05/23 01:29:06;;;;;;;;;;;27.40;92.90;;;;;;5064167;28;19927;-55
2021/05/23 01:31:35;;;;;;;;;;;27.40;92.80;;;;;;5064500;28;19948;-52
2021/05/23 01:34:02;;;;;;;;;;;27.40;92.90;;;;;;5064471;28;20136;-51
2021/05/23 01:36:33;;;;;;;;;;;27.40;92.80;;;;;;5064604;28;19913;-53
2021/05/23 01:39:00;;;;;;;;;;;27.30;92.70;;;;;;5064343;28;19911;-53
2021/05/23 01:41:27;;;;;;;;;;;27.30;92.70;;;;;;5064379;28;19912;-53
2021/05/23 01:43:53;;;;;;;;;;;27.30;92.60;;;;;;5063959;28;19974;-53
2021/05/23 01:46:20;;;;;;;;;;;27.30;92.50;;;;;;5063882;28;19948;-53
2021/05/23 01:48:47;;;;;;;;;;;27.30;92.40;;;;;;5064148;28;20102;-52
2021/05/23 01:51:13;;;;;;;;;;;27.30;92.40;;;;;;5063513;28;19919;-53
2021/05/23 01:53:41;;;;;;;;;;;27.30;92.50;;;;;;5064137;28;19904;-53
2021/05/23 01:56:09;;;;;;;;;;;27.30;92.20;;;;;;5064265;28;20088;-52
2021/05/23 01:58:35;;;;;;;;;;;27.30;92.20;;;;;;5064140;28;20220;-52
2021/05/23 02:01:02;;;;;;;;;;;27.30;92.00;;;;;;5064200;28;19920;-54
2021/05/23 02:03:31;;;;;;;;;;;27.30;92.00;;;;;;5063981;28;19918;-57
2021/05/23 02:05:58;;;;;;;;;;;27.30;91.90;;;;;;5064035;28;19979;-51
2021/05/23 02:08:25;;;;;;;;;;;27.30;91.90;;;;;;5063626;28;19912;-52
2021/05/23 02:10:53;;;;;;;;;;;27.30;91.80;;;;;;5063478;28;19968;-52
2021/05/23 02:13:20;;;;;;;;;;;27.30;91.80;;;;;;5046031;28;19913;-55
2021/05/23 02:15:48;;;;;;;;;;;27.20;91.70;;;;;;5046114;28;20189;-51
2021/05/23 02:18:14;;;;;;;;;;;27.20;91.60;;;;;;5063713;28;20141;-55
2021/05/23 02:20:41;;;;;;;;;;;27.20;91.60;;;;;;5063897;28;19905;-52
2021/05/23 02:23:12;;;;;;;;;;;27.20;91.50;;;;;;5063671;28;19904;-50
2021/05/23 02:25:38;;;;;;;;;;;27.20;91.40;;;;;;5046300;28;20189;-51
2021/05/23 02:28:05;;;;;;;;;;;27.20;91.40;;;;;;5063958;28;20220;-51
2021/05/23 02:30:34;;;;;;;;;;;27.20;91.30;;;;;;5063685;28;20101;-53
2021/05/23 02:33:04;;;;;;;;;;;27.20;91.20;;;;;;5064121;28;19955;-57
2021/05/23 02:35:32;;;;;;;;;;;27.20;91.20;;;;;;5029669;28;19909;-51
2021/05/23 02:37:59;;;;;;;;;;;27.20;91.30;;;;;;5045975;28;20189;-56
2021/05/23 02:40:28;;;;;;;;;;;27.20;91.20;;;;;;5045871;28;20133;-57
2021/05/23 02:42:55;;;;;;;;;;;27.20;91.10;;;;;;5064060;28;19941;-51
2021/05/23 02:45:22;;;;;;;;;;;27.20;91.10;;;;;;5063519;28;19920;-53
2021/05/23 02:47:49;;;;;;;;;;;27.20;91.10;;;;;;5064028;28;19913;-56
2021/05/23 02:50:17;;;;;;;;;;;27.20;91.10;;;;;;5045799;28;19916;-52
2021/05/23 02:52:43;;;;;;;;;;;27.10;91.00;;;;;;5045796;28;19928;-53
2021/05/23 02:55:10;;;;;;;;;;;27.10;91.20;;;;;;5063582;28;19927;-53
2021/05/23 02:57:37;;;;;;;;;;;27.10;91.10;;;;;;5063878;28;19950;-54
2021/05/23 03:00:05;;;;;;;;;;;27.10;91.30;;;;;;5064341;28;20162;-50
2021/05/23 03:02:35;;;;;;;;;;;27.10;91.30;;;;;;5030721;28;19920;-59
2021/05/23 03:05:01;;;;;;;;;;;27.00;91.20;;;;;;5067430;28;19908;-51
2021/05/23 03:07:27;;;;;;;;;;;27.00;91.20;;;;;;5067751;28;19913;-54
2021/05/23 03:09:53;;;;;;;;;;;27.00;91.20;;;;;;5068356;28;20189;-51
2021/05/23 03:12:19;;;;;;;;;;;27.00;91.20;;;;;;5067158;28;20288;-53
2021/05/23 03:14:46;;;;;;;;;;;27.00;91.30;;;;;;5067330;28;20086;-51
2021/05/23 03:17:12;;;;;;;;;;;26.90;91.30;;;;;;5067566;28;20181;-54
2021/05/23 03:19:38;;;;;;;;;;;26.90;91.10;;;;;;5067116;28;19908;-53
2021/05/23 03:22:09;;;;;;;;;;;26.90;91.00;;;;;;5066903;28;19955;-61
2021/05/23 03:24:35;;;;;;;;;;;26.90;91.10;;;;;;5066043;28;19913;-51
2021/05/23 03:27:01;;;;;;;;;;;26.90;91.00;;;;;;5065938;28;19912;-62
2021/05/23 03:29:27;;;;;;;;;;;26.90;90.80;;;;;;5066456;28;19944;-58
2021/05/23 03:31:54;;;;;;;;;;;27.00;90.80;;;;;;5066889;28;19924;-62
2021/05/23 03:34:20;;;;;;;;;;;27.00;90.70;;;;;;5066420;28;19956;-53
2021/05/23 03:36:46;;;;;;;;;;;27.00;90.70;;;;;;5066679;28;20100;-50
2021/05/23 03:39:12;;;;;;;;;;;27.00;90.80;;;;;;5066200;28;19904;-51
2021/05/23 03:41:38;;;;;;;;;;;27.00;90.80;;;;;;5048947;28;19913;-52
2021/05/23 03:44:05;;;;;;;;;;;27.00;90.80;;;;;;5066214;28;19919;-48
2021/05/23 03:46:31;;;;;;;;;;;27.00;90.70;;;;;;5066418;28;19916;-49
2021/05/23 03:48:57;;;;;;;;;;;27.00;90.70;;;;;;5066374;28;20192;-46
2021/05/23 03:51:23;;;;;;;;;;;27.00;90.60;;;;;;5066212;28;20216;-48
2021/05/23 03:53:49;;;;;;;;;;;26.90;90.60;;;;;;5066128;28;19931;-46
2021/05/23 03:56:16;;;;;;;;;;;26.90;90.60;;;;;;5066096;28;20105;-48
2021/05/23 03:58:42;;;;;;;;;;;26.90;90.60;;;;;;5066078;28;19916;-54
2021/05/23 04:01:08;;;;;;;;;;;26.90;90.60;;;;;;5066359;28;20111;-49
2021/05/23 04:03:34;;;;;;;;;;;26.90;90.60;;;;;;5065769;28;19923;-49
2021/05/23 04:06:00;;;;;;;;;;;26.90;90.60;;;;;;5066226;28;19915;-47
2021/05/23 04:08:27;;;;;;;;;;;26.90;90.60;;;;;;5065786;28;19915;-50
2021/05/23 04:11:02;;;;;;;;;;;26.90;90.50;;;;;;5066112;28;19939;-50
2021/05/23 04:13:31;;;;;;;;;;;26.80;90.50;;;;;;5049046;28;19944;-48
2021/05/23 04:15:57;;;;;;;;;;;26.80;90.50;;;;;;5065761;28;19963;-57
2021/05/23 04:18:23;;;;;;;;;;;26.80;90.50;;;;;;5065589;28;19909;-49
2021/05/23 04:20:50;;;;;;;;;;;26.80;90.50;;;;;;5065787;28;19912;-50
2021/05/23 04:23:16;;;;;;;;;;;26.80;90.60;;;;;;5065553;28;19962;-49
2021/05/23 04:25:42;;;;;;;;;;;26.70;90.60;;;;;;5065739;28;19911;-48
2021/05/23 04:28:08;;;;;;;;;;;26.80;90.70;;;;;;5065298;28;19916;-47
2021/05/23 04:30:34;;;;;;;;;;;26.80;90.70;;;;;;5065464;28;19955;-49
2021/05/23 04:33:02;;;;;;;;;;;26.80;90.70;;;;;;5065313;28;19948;-52
2021/05/23 04:35:29;;;;;;;;;;;26.70;90.70;;;;;;5065585;28;19909;-50
2021/05/23 04:37:57;;;;;;;;;;;26.70;90.70;;;;;;5065817;28;19951;-47
2021/05/23 04:40:23;;;;;;;;;;;26.70;90.70;;;;;;5031407;28;20197;-52
2021/05/23 04:42:50;;;;;;;;;;;26.70;90.70;;;;;;5065168;28;19916;-51
2021/05/23 04:45:16;;;;;;;;;;;26.70;90.70;;;;;;5065187;28;20109;-56
2021/05/23 04:47:42;;;;;;;;;;;26.70;90.70;;;;;;5065619;28;19920;-51
2021/05/23 04:50:09;;;;;;;;;;;26.70;90.80;;;;;;5047489;28;19943;-46
2021/05/23 04:52:35;;;;;;;;;;;26.70;90.70;;;;;;5065295;28;20079;-48
2021/05/23 04:55:03;;;;;;;;;;;26.70;90.70;;;;;;5065012;28;19996;-49
2021/05/23 04:57:29;;;;;;;;;;;26.70;90.60;;;;;;5065401;28;20000;-49
2021/05/23 04:59:55;;;;;;;;;;;26.70;90.50;;;;;;5073043;28;19905;-46
2021/05/23 05:02:22;;;;;;;;;;;26.70;90.60;;;;;;5085416;28;20154;-60
2021/05/23 05:04:48;;;;;;;;;;;26.70;90.60;;;;;;5073598;28;19932;-48
2021/05/23 05:07:14;;;;;;;;;;;26.70;90.60;;;;;;5065343;28;19921;-56
2021/05/23 05:09:40;;;;;;;;;;;26.70;90.60;;;;;;5047003;28;20105;-50
2021/05/23 05:12:07;;;;;;;;;;;26.70;90.60;;;;;;5065092;28;20211;-49
2021/05/23 05:14:33;;;;;;;;;;;26.70;90.60;;;;;;5046858;28;19912;-48
2021/05/23 05:17:00;;;;;;;;;;;26.60;90.60;;;;;;5047366;28;19951;-47
2021/05/23 05:19:26;;;;;;;;;;;26.70;90.70;;;;;;5064566;28;19911;-47
2021/05/23 05:21:52;;;;;;;;;;;26.60;90.60;;;;;;5065076;28;19983;-48
2021/05/23 05:24:18;;;;;;;;;;;26.60;90.60;;;;;;5046934;28;20231;-48
2021/05/23 05:26:45;;;;;;;;;;;26.70;90.60;;;;;;5045970;28;19913;-52
2021/05/23 05:29:11;;;;;;;;;;;26.70;90.60;;;;;;5064457;28;19904;-48
2021/05/23 05:31:37;;;;;;;;;;;26.60;90.60;;;;;;5064614;28;19924;-49
2021/05/23 05:34:03;;;;;;;;;;;26.60;90.60;;;;;;5064413;28;19905;-50
2021/05/23 05:36:30;;;;;;;;;;;26.60;90.70;;;;;;5064576;28;19912;-48
2021/05/23 05:38:56;;;;;;;;;;;26.60;90.60;;;;;;5064178;28;20027;-48
2021/05/23 05:41:22;;;;;;;;;;;26.60;90.60;;;;;;5064480;28;19991;-48
2021/05/23 05:43:49;;;;;;;;;;;26.60;90.60;;;;;;5064002;28;19913;-48
2021/05/23 05:46:16;;;;;;;;;;;26.60;90.60;;;;;;5064207;28;20127;-48
2021/05/23 05:48:42;;;;;;;;;;;26.60;90.60;;;;;;5064122;28;19956;-49
2021/05/23 05:51:08;;;;;;;;;;;26.60;90.50;;;;;;5064221;28;19913;-55
2021/05/23 05:53:34;;;;;;;;;;;26.60;90.50;;;;;;5064050;28;19905;-52
2021/05/23 05:56:01;;;;;;;;;;;26.60;90.50;;;;;;5064556;28;19958;-53
2021/05/23 05:58:27;;;;;;;;;;;26.60;90.60;;;;;;5064129;28;19936;-53
2021/05/23 06:00:53;;;;;;;;;;;26.60;90.60;;;;;;5064043;28;19913;-54
2021/05/23 06:03:19;;;;;;;;;;;26.60;90.50;;;;;;5064082;28;19905;-49
2021/05/23 06:05:45;;;;;;;;;;;26.60;90.60;;;;;;5046178;28;20215;-50
2021/05/23 06:08:12;;;;;;;;;;;26.50;90.70;;;;;;5064133;28;19909;-53
2021/05/23 06:10:39;;;;;;;;;;;26.50;90.80;;;;;;5063640;28;20148;-52
2021/05/23 06:13:06;;;;;;;;;;;26.50;90.80;;;;;;5064165;28;19909;-52
2021/05/23 06:15:32;;;;;;;;;;;26.50;90.90;;;;;;5063838;28;20200;-52
2021/05/23 06:17:59;;;;;;;;;;;26.50;91.00;;;;;;5064411;28;19921;-50
2021/05/23 06:20:25;;;;;;;;;;;26.50;91.00;;;;;;5064143;28;19905;-51
2021/05/23 06:22:52;;;;;;;;;;;26.50;91.00;;;;;;5064357;28;19936;-52
2021/05/23 06:25:18;;;;;;;;;;;26.40;91.00;;;;;;5063724;28;19905;-51
2021/05/23 06:27:44;;;;;;;;;;;26.40;90.90;;;;;;5063916;28;20200;-48
2021/05/23 06:30:10;;;;;;;;;;;26.40;90.90;;;;;;5063797;28;20011;-49
2021/05/23 06:32:36;;;;;;;;;;;26.40;90.80;;;;;;5064119;28;19991;-48
2021/05/23 06:35:03;;;;;;;;;;;26.40;90.90;;;;;;5063776;28;20200;-55
2021/05/23 06:37:29;;;;;;;;;;;26.40;90.90;;;;;;5065762;28;19944;-50
2021/05/23 06:39:56;;;;;;;;;;;26.40;90.90;;;;;;5067639;28;19905;-54
2021/05/23 06:42:22;;;;;;;;;;;26.40;91.00;;;;;;5068023;28;19935;-58
2021/05/23 06:44:48;;;;;;;;;;;26.40;90.90;;;;;;5067330;28;19919;-49
2021/05/23 06:47:15;;;;;;;;;;;26.40;90.90;;;;;;5050052;28;19920;-50
2021/05/23 06:49:41;;;;;;;;;;;26.40;90.90;;;;;;5067444;28;19911;-50
2021/05/23 06:52:08;;;;;;;;;;;26.40;91.00;;;;;;5067785;28;19920;-49
2021/05/23 06:54:34;;;;;;;;;;;26.40;90.90;;;;;;5067076;28;19905;-52
2021/05/23 06:57:01;;;;;;;;;;;26.40;90.90;;;;;;5067641;28;20078;-52
2021/05/23 06:59:27;;;;;;;;;;;26.40;90.80;;;;;;5049541;28;19905;-52
2021/05/23 07:01:53;;;;;;;;;;;26.50;90.60;;;;;;5067787;28;19971;-60
2021/05/23 07:04:19;;;;;;;;;;;26.50;90.50;;;;;;5067145;28;19912;-59
2021/05/23 07:06:45;;;;;;;;;;;26.50;90.30;;;;;;5067612;28;20193;-51
2021/05/23 07:09:12;;;;;;;;;;;26.60;90.30;;;;;;5067098;28;19904;-51
2021/05/23 07:11:38;;;;;;;;;;;26.60;90.10;;;;;;5067116;28;19955;-55
2021/05/23 07:14:04;;;;;;;;;;;26.60;90.00;;;;;;5067112;28;19904;-61
2021/05/23 07:16:30;;;;;;;;;;;26.60;89.90;;;;;;5067225;28;19991;-62
2021/05/23 07:18:56;;;;;;;;;;;26.70;89.70;;;;;;5066689;28;19935;-59
2021/05/23 07:21:22;;;;;;;;;;;26.60;89.60;;;;;;5067102;28;19913;-56
2021/05/23 07:23:49;;;;;;;;;;;26.60;89.70;;;;;;5066778;28;19917;-51
2021/05/23 07:26:15;;;;;;;;;;;26.60;90.00;;;;;;5066929;28;19920;-49
2021/05/23 07:28:41;;;;;;;;;;;26.60;90.00;;;;;;5066557;28;19912;-53
2021/05/23 07:31:07;;;;;;;;;;;26.60;90.10;;;;;;5066921;28;19919;-47
2021/05/23 07:33:33;;;;;;;;;;;26.60;90.40;;;;;;5066642;28;19905;-52
2021/05/23 07:36:00;;;;;;;;;;;26.60;90.10;;;;;;5066640;28;20101;-58
2021/05/23 07:38:27;;;;;;;;;;;26.60;90.10;;;;;;5066760;28;19904;-53
2021/05/23 07:40:54;;;;;;;;;;;26.60;90.20;;;;;;5066603;28;19919;-51
2021/05/23 07:43:20;;;;;;;;;;;26.60;90.10;;;;;;5066309;28;19921;-59
2021/05/23 07:45:48;;;;;;;;;;;26.50;90.10;;;;;;5066366;28;19904;-49
2021/05/23 07:48:14;;;;;;;;;;;26.50;90.20;;;;;;5065848;28;19951;-52
2021/05/23 07:50:40;;;;;;;;;;;26.50;90.20;;;;;;5065529;28;19968;-51
2021/05/23 07:53:06;;;;;;;;;;;26.50;90.30;;;;;;5066403;28;19951;-50
2021/05/23 07:55:32;;;;;;;;;;;26.50;90.10;;;;;;5066220;28;20200;-49
2021/05/23 07:57:59;;;;;;;;;;;26.50;90.00;;;;;;5066791;28;20104;-53
2021/05/23 08:00:26;;;;;;;;;;;26.50;90.00;;;;;;5066118;28;20291;-58
2021/05/23 08:02:57;;;;;;;;;;;26.50;89.60;;;;;;5066585;28;20065;-57
2021/05/23 08:05:24;;;;;;;;;;;26.50;89.70;;;;;;5066022;28;19905;-63
2021/05/23 08:07:50;;;;;;;;;;;26.50;89.30;;;;;;5066646;28;19912;-59
2021/05/23 08:10:16;;;;;;;;;;;26.60;89.00;;;;;;5065926;28;19936;-59
2021/05/23 08:12:42;;;;;;;;;;;26.50;88.90;;;;;;5066233;28;19916;-51
2021/05/23 08:15:08;;;;;;;;;;;26.50;88.90;;;;;;5065947;28;19909;-51
2021/05/23 08:17:37;;;;;;;;;;;26.50;88.90;;;;;;5066437;28;19920;-51
2021/05/23 08:20:03;;;;;;;;;;;26.60;88.80;;;;;;5066025;28;19939;-50
2021/05/23 08:22:29;;;;;;;;;;;26.60;88.80;;;;;;5066385;28;19916;-51
2021/05/23 08:24:56;;;;;;;;;;;26.60;88.60;;;;;;5065530;28;19940;-49
2021/05/23 08:27:22;;;;;;;;;;;26.60;88.50;;;;;;5066092;28;19913;-51
2021/05/23 08:29:48;;;;;;;;;;;26.60;88.30;;;;;;5065540;28;19916;-53
2021/05/23 08:32:14;;;;;;;;;;;26.60;88.30;;;;;;5065828;28;19996;-54
2021/05/23 08:34:41;;;;;;;;;;;26.60;88.20;;;;;;5065258;28;19915;-52
2021/05/23 08:37:07;;;;;;;;;;;26.60;88.20;;;;;;5065963;28;19916;-53
2021/05/23 08:39:33;;;;;;;;;;;26.60;88.20;;;;;;5065407;28;19972;-52
2021/05/23 08:42:00;;;;;;;;;;;26.50;88.30;;;;;;5065613;28;20190;-63
2021/05/23 08:44:27;;;;;;;;;;;26.50;88.40;;;;;;5065229;28;19913;-51
2021/05/23 08:46:53;;;;;;;;;;;26.50;88.30;;;;;;5065547;28;19921;-52
2021/05/23 08:49:23;;;;;;;;;;;26.50;88.10;;;;;;5065174;28;19904;-52
2021/05/23 08:51:50;;;;;;;;;;;26.50;88.30;;;;;;5065492;28;19921;-52
2021/05/23 08:54:17;;;;;;;;;;;26.50;88.30;;;;;;5065167;28;19920;-52
2021/05/23 08:56:44;;;;;;;;;;;26.50;88.30;;;;;;5065016;28;19944;-52
2021/05/23 08:59:10;;;;;;;;;;;26.50;88.30;;;;;;5065095;28;19905;-52
2021/05/23 09:01:38;;;;;;;;;;;26.50;88.50;;;;;;5065082;28;20189;-51
2021/05/23 09:04:05;;;;;;;;;;;26.50;88.50;;;;;;5064809;28;20189;-51
2021/05/23 09:06:35;;;;;;;;;;;26.50;88.50;;;;;;5065105;28;19984;-52
2021/05/23 09:09:06;;;;;;;;;;;26.40;88.80;;;;;;5065071;28;19911;-52
2021/05/23 09:11:32;;;;;;;;;;;26.40;88.60;;;;;;5064891;28;19917;-55
2021/05/23 09:13:58;;;;;;;;;;;26.40;88.70;;;;;;5064822;28;19905;-51
2021/05/23 09:16:25;;;;;;;;;;;26.40;88.70;;;;;;5064930;28;19920;-53
2021/05/23 09:18:55;;;;;;;;;;;26.40;88.60;;;;;;5046681;28;20105;-52
2021/05/23 09:21:30;;;;;;;;;;;26.40;88.60;;;;;;5065042;28;19913;-53
2021/05/23 09:23:58;;;;;;;;;;;26.40;88.70;;;;;;5046751;28;19909;-52
2021/05/23 09:26:53;;;;;;;;;;;26.40;88.60;;;;;;5064820;28;20000;-53
2021/05/23 09:29:22;;;;;;;;;;;26.40;88.50;;;;;;5047390;28;19911;-60
2021/05/23 09:32:02;;;;;;;;;;;26.30;88.60;;;;;;5064580;28;19920;-53
2021/05/23 09:34:29;;;;;;;;;;;26.40;88.60;;;;;;5064340;28;19952;-50
2021/05/23 09:36:56;;;;;;;;;;;26.40;88.60;;;;;;5064580;28;19920;-49
2021/05/23 09:39:33;;;;;;;;;;;26.40;88.50;;;;;;5064598;28;19955;-61
2021/05/23 09:42:02;;;;;;;;;;;26.40;88.50;;;;;;5064214;28;19920;-58
2021/05/23 09:44:29;;;;;;;;;;;26.40;88.30;;;;;;5064154;28;19920;-52
2021/05/23 09:47:00;;;;;;;;;;;26.40;88.40;;;;;;5064463;28;19920;-52
2021/05/23 09:49:27;;;;;;;;;;;26.40;88.30;;;;;;5063801;28;19908;-52
2021/05/23 09:51:55;;;;;;;;;;;26.40;88.50;;;;;;5064339;28;19924;-52
2021/05/23 09:54:22;;;;;;;;;;;26.40;88.60;;;;;;5064115;28;19916;-52
2021/05/23 09:56:49;;;;;;;;;;;26.40;88.70;;;;;;5064348;28;20140;-52
2021/05/23 09:59:25;;;;;;;;;;;26.40;88.70;;;;;;5064040;28;19979;-49
2021/05/23 10:01:52;;;;;;;;;;;26.40;88.80;;;;;;5064414;28;19909;-60
2021/05/23 10:04:20;;;;;;;;;;;26.40;88.90;;;;;;5063902;28;19909;-60
2021/05/23 10:06:56;;;;;;;;;;;26.40;89.00;;;;;;5064238;28;19947;-51
2021/05/23 10:09:23;;;;;;;;;;;26.30;89.10;;;;;;5063949;28;19909;-51
2021/05/23 10:11:49;;;;;;;;;;;26.40;89.00;;;;;;5064647;28;19959;-52
2021/05/23 10:14:16;;;;;;;;;;;26.30;89.00;;;;;;5068094;28;19910;-49
2021/05/23 10:16:42;;;;;;;;;;;26.30;88.90;;;;;;5068171;28;19913;-52
2021/05/23 10:19:10;;;;;;;;;;;26.40;88.80;;;;;;5068112;28;19908;-55
2021/05/23 10:21:36;;;;;;;;;;;26.40;88.90;;;;;;5068333;28;20286;-58
2021/05/23 10:24:03;;;;;;;;;;;26.40;88.80;;;;;;5067891;28;20184;-49
2021/05/23 10:26:30;;;;;;;;;;;26.40;89.00;;;;;;5068201;28;20089;-47
2021/05/23 10:28:59;;;;;;;;;;;26.40;89.10;;;;;;5067604;28;19919;-50
2021/05/23 10:31:33;;;;;;;;;;;26.30;89.20;;;;;;5067917;28;19959;-52
2021/05/23 10:34:00;;;;;;;;;;;26.30;89.20;;;;;;5067740;28;19908;-55
2021/05/23 10:36:39;;;;;;;;;;;26.30;89.30;;;;;;5068032;28;19940;-51
2021/05/23 10:39:08;;;;;;;;;;;26.30;89.40;;;;;;5067722;28;19908;-52
2021/05/23 10:41:34;;;;;;;;;;;26.30;89.40;;;;;;5067874;28;19908;-61
2021/05/23 10:44:01;;;;;;;;;;;26.30;89.50;;;;;;5067346;28;19913;-53
2021/05/23 10:46:28;;;;;;;;;;;26.30;89.40;;;;;;5067510;28;20152;-58
2021/05/23 10:48:58;;;;;;;;;;;26.40;89.30;;;;;;5067379;28;19943;-49
2021/05/23 10:51:24;;;;;;;;;;;26.40;89.40;;;;;;5067600;28;19913;-51
2021/05/23 10:53:51;;;;;;;;;;;26.40;89.60;;;;;;5067286;28;19905;-53
2021/05/23 10:56:19;;;;;;;;;;;26.40;89.80;;;;;;5067562;28;20193;-51
2021/05/23 10:59:04;;;;;;;;;;;26.30;89.80;;;;;;5067162;28;19905;-52
2021/05/23 11:01:50;;;;;;;;;;;26.40;89.90;;;;;;5067623;28;19912;-53
2021/05/23 11:04:17;;;;;;;;;;;26.40;89.90;;;;;;5067291;28;19916;-51
2021/05/23 11:06:45;;;;;;;;;;;26.40;90.00;;;;;;5067359;28;19916;-52
2021/05/23 11:09:13;;;;;;;;;;;26.40;90.00;;;;;;5067038;28;19905;-51
2021/05/23 11:11:39;;;;;;;;;;;26.30;90.10;;;;;;5067329;28;20191;-52
2021/05/23 11:14:13;;;;;;;;;;;26.40;90.20;;;;;;5067012;28;20078;-52
2021/05/23 11:17:05;;;;;;;;;;;26.40;90.20;;;;;;5067199;28;20012;-50
2021/05/23 11:19:32;;;;;;;;;;;26.40;90.20;;;;;;5063181;28;19904;-59
2021/05/23 11:21:59;;;;;;;;;;;26.40;90.30;;;;;;5067165;28;19913;-59
2021/05/23 11:24:26;;;;;;;;;;;26.40;90.30;;;;;;5066704;28;19912;-52
2021/05/23 11:26:52;;;;;;;;;;;26.40;90.30;;;;;;5066772;28;20124;-54
2021/05/23 11:29:19;;;;;;;;;;;26.40;90.30;;;;;;5066587;28;19905;-50
2021/05/23 11:31:49;;;;;;;;;;;26.40;90.40;;;;;;5066967;28;19916;-51
2021/05/23 11:34:18;;;;;;;;;;;26.40;90.40;;;;;;5066618;28;19951;-50
2021/05/23 11:36:44;;;;;;;;;;;26.40;90.50;;;;;;5066962;28;19947;-52
2021/05/23 11:39:12;;;;;;;;;;;26.40;90.60;;;;;;5066582;28;20100;-57
2021/05/23 11:41:39;;;;;;;;;;;26.40;90.60;;;;;;5066869;28;20000;-47
2021/05/23 11:44:07;;;;;;;;;;;26.40;90.80;;;;;;5066324;28;20284;-52
2021/05/23 11:46:33;;;;;;;;;;;26.40;90.80;;;;;;5066577;28;20112;-52
2021/05/23 11:49:00;;;;;;;;;;;26.40;90.90;;;;;;5066267;28;20070;-53
2021/05/23 11:51:27;;;;;;;;;;;26.40;91.00;;;;;;5066334;28;20142;-55
2021/05/23 11:53:55;;;;;;;;;;;26.40;91.10;;;;;;5066202;28;19911;-52
2021/05/23 11:56:23;;;;;;;;;;;26.50;91.20;;;;;;5066228;28;19943;-52
2021/05/23 11:58:52;;;;;;;;;;;26.40;91.10;;;;;;5065900;28;19947;-52
2021/05/23 12:01:31;;;;;;;;;;;26.40;91.30;;;;;;5066512;28;19913;-53
2021/05/23 12:03:59;;;;;;;;;;;26.40;91.30;;;;;;5065937;28;20186;-53
2021/05/23 12:06:25;;;;;;;;;;;26.50;91.40;;;;;;5066135;28;20108;-54
2021/05/23 12:08:53;;;;;;;;;;;26.50;91.40;;;;;;5065838;28;19905;-51
2021/05/23 12:11:21;;;;;;;;;;;26.50;91.40;;;;;;5065862;28;20136;-54
2021/05/23 12:13:48;;;;;;;;;;;26.50;91.50;;;;;;5065852;28;19905;-51
2021/05/23 12:16:17;;;;;;;;;;;26.50;91.50;;;;;;5066078;28;19984;-54
2021/05/23 12:18:47;;;;;;;;;;;26.50;91.50;;;;;;5065700;28;19905;-52
2021/05/23 12:21:15;;;;;;;;;;;26.50;91.40;;;;;;5065839;28;19919;-53
2021/05/23 12:23:42;;;;;;;;;;;26.50;91.30;;;;;;5065715;28;19971;-51
2021/05/23 12:26:10;;;;;;;;;;;26.60;91.20;;;;;;5065793;28;20176;-52
2021/05/23 12:28:37;;;;;;;;;;;26.50;91.30;;;;;;5065592;28;19905;-54
2021/05/23 12:31:05;;;;;;;;;;;26.60;91.30;;;;;;5065821;28;19940;-49
2021/05/23 12:33:31;;;;;;;;;;;26.60;91.30;;;;;;5065269;28;19913;-51
2021/05/23 12:36:05;;;;;;;;;;;26.60;91.50;;;;;;5065066;28;20193;-52
2021/05/23 12:38:31;;;;;;;;;;;26.60;91.50;;;;;;5065490;28;20198;-52
2021/05/23 12:40:58;;;;;;;;;;;26.60;91.50;;;;;;5065381;28;20157;-49
2021/05/23 12:43:28;;;;;;;;;;;26.60;91.50;;;;;;5065107;28;19908;-60
2021/05/23 12:46:12;;;;;;;;;;;26.60;91.40;;;;;;5065115;28;19905;-60
2021/05/23 12:48:38;;;;;;;;;;;26.70;91.40;;;;;;5064968;28;19904;-53
2021/05/23 12:51:23;;;;;;;;;;;26.70;91.40;;;;;;5065455;28;20212;-53
2021/05/23 12:53:52;;;;;;;;;;;26.70;91.40;;;;;;5065108;28;19935;-60
2021/05/23 12:56:24;;;;;;;;;;;26.70;91.40;;;;;;5065140;28;20193;-52
2021/05/23 12:58:54;;;;;;;;;;;26.70;91.40;;;;;;5064992;28;19905;-52
2021/05/23 13:01:25;;;;;;;;;;;26.80;91.50;;;;;;5064979;28;19944;-53
2021/05/23 13:03:56;;;;;;;;;;;26.80;91.40;;;;;;5064906;28;19964;-57
2021/05/23 13:06:23;;;;;;;;;;;26.80;91.40;;;;;;5065114;28;19928;-56
2021/05/23 13:08:59;;;;;;;;;;;26.80;91.50;;;;;;5064600;28;19944;-51
2021/05/23 13:11:25;;;;;;;;;;;26.80;91.50;;;;;;5064932;28;19913;-50
2021/05/23 13:13:52;;;;;;;;;;;26.80;91.50;;;;;;5064655;28;19912;-50
2021/05/23 13:16:21;;;;;;;;;;;26.80;91.60;;;;;;5064898;28;19912;-51
2021/05/23 13:18:47;;;;;;;;;;;26.80;91.40;;;;;;5064634;28;19905;-50
2021/05/23 13:21:18;;;;;;;;;;;26.90;91.40;;;;;;5064890;28;19971;-56
2021/05/23 13:23:45;;;;;;;;;;;26.90;91.40;;;;;;5064507;28;19905;-50
2021/05/23 13:26:13;;;;;;;;;;;26.90;91.40;;;;;;5064613;28;19928;-52
2021/05/23 13:28:39;;;;;;;;;;;26.90;91.30;;;;;;5064313;28;19905;-46
2021/05/23 13:31:05;;;;;;;;;;;26.90;91.30;;;;;;5064611;28;19920;-49
2021/05/23 13:33:32;;;;;;;;;;;26.90;91.40;;;;;;5064266;28;19913;-49
2021/05/23 13:35:58;;;;;;;;;;;27.00;91.30;;;;;;5064699;28;19924;-49
2021/05/23 13:38:24;;;;;;;;;;;27.00;91.30;;;;;;5064381;28;19905;-53
2021/05/23 13:40:50;;;;;;;;;;;27.10;91.30;;;;;;5063973;28;20007;-50
2021/05/23 13:43:17;;;;;;;;;;;27.10;91.30;;;;;;5064122;28;19905;-49
2021/05/23 13:45:43;;;;;;;;;;;27.10;91.40;;;;;;5063912;28;19936;-50
2021/05/23 13:48:09;;;;;;;;;;;27.20;91.30;;;;;;5063458;28;19947;-54
2021/05/23 13:50:36;;;;;;;;;;;27.20;91.20;;;;;;5066692;28;20262;-49
2021/05/23 13:53:02;;;;;;;;;;;27.20;91.20;;;;;;5084727;28;19920;-48
2021/05/23 13:55:28;;;;;;;;;;;27.30;91.20;;;;;;5078375;28;19972;-49
2021/05/23 13:57:54;;;;;;;;;;;27.30;91.30;;;;;;5064396;28;19920;-46
2021/05/23 14:00:21;;;;;;;;;;;27.30;91.30;;;;;;5064025;28;19911;-45
2021/05/23 14:02:47;;;;;;;;;;;27.50;91.30;;;;;;5064634;28;19913;-51
2021/05/23 14:05:13;;;;;;;;;;;27.60;91.10;;;;;;5063750;28;19932;-46
2021/05/23 14:07:39;;;;;;;;;;;27.60;90.90;;;;;;5064541;28;19920;-49
2021/05/23 14:10:06;;;;;;;;;;;27.60;91.00;;;;;;5045982;28;19913;-45
2021/05/23 14:12:32;;;;;;;;;;;27.70;91.00;;;;;;5046554;28;19940;-49
2021/05/23 14:14:58;;;;;;;;;;;27.70;90.90;;;;;;5063944;28;19904;-51
2021/05/23 14:17:25;;;;;;;;;;;27.70;91.00;;;;;;5064357;28;19987;-49